<?xml version="1.0" encoding="UTF-8" standalone="no" ?>
<gpx xmlns="http://www.topografix.com/GPX/1/1" xmlns:xsi="http://www.w3.org/2001/XMLSchema-instance" xsi:schemaLocation="http://www.topografix.com/GPX/1/1 http://www.topografix.com/GPX/1/1/gpx.xsd" version="1.1" creator="VisuGPX - https://www.visugpx.com">
  <metadata>
    <name>Jas des lievres</name>
    <desc><![CDATA[2017 03 26 le jas des lievres
ski rando solo]]></desc>
  </metadata>
  <trk>
    <name><![CDATA[20180619175044-E3Kks]]></name>
    <trkseg>
      <trkpt lat="45.25406" lon="5.99306">
        <ele>1356</ele>
        <time>2017-03-26T07:46:20Z</time>
      </trkpt>
      <trkpt lat="45.25472" lon="5.99361">
        <ele>1359</ele>
        <time>2017-03-26T07:57:28Z</time>
      </trkpt>
      <trkpt lat="45.25377" lon="5.99354">
        <ele>1371</ele>
        <time>2017-03-26T08:05:57Z</time>
      </trkpt>
      <trkpt lat="45.25242" lon="5.99356">
        <ele>1384</ele>
        <time>2017-03-26T08:07:50Z</time>
      </trkpt>
      <trkpt lat="45.25113" lon="5.99417">
        <ele>1404</ele>
        <time>2017-03-26T08:09:50Z</time>
      </trkpt>
      <trkpt lat="45.24961" lon="5.99498">
        <ele>1405</ele>
        <time>2017-03-26T08:12:30Z</time>
      </trkpt>
      <trkpt lat="45.24806" lon="5.99667">
        <ele>1444</ele>
        <time>2017-03-26T08:15:54Z</time>
      </trkpt>
      <trkpt lat="45.24669" lon="5.99799">
        <ele>1459</ele>
        <time>2017-03-26T08:18:54Z</time>
      </trkpt>
      <trkpt lat="45.2462" lon="5.99884">
        <ele>1485</ele>
        <time>2017-03-26T08:22:28Z</time>
      </trkpt>
      <trkpt lat="45.24589" lon="5.99986">
        <ele>1522</ele>
        <time>2017-03-26T08:26:16Z</time>
      </trkpt>
      <trkpt lat="45.24579" lon="6.00092">
        <ele>1556</ele>
        <time>2017-03-26T08:30:02Z</time>
      </trkpt>
      <trkpt lat="45.24549" lon="6.00201">
        <ele>1583</ele>
        <time>2017-03-26T08:37:12Z</time>
      </trkpt>
      <trkpt lat="45.24489" lon="6.00295">
        <ele>1590</ele>
        <time>2017-03-26T08:39:21Z</time>
      </trkpt>
      <trkpt lat="45.24443" lon="6.00403">
        <ele>1609</ele>
        <time>2017-03-26T08:45:41Z</time>
      </trkpt>
      <trkpt lat="45.24376" lon="6.00507">
        <ele>1634</ele>
        <time>2017-03-26T08:47:29Z</time>
      </trkpt>
      <trkpt lat="45.24293" lon="6.00579">
        <ele>1628</ele>
        <time>2017-03-26T08:49:17Z</time>
      </trkpt>
      <trkpt lat="45.24218" lon="6.00651">
        <ele>1645</ele>
        <time>2017-03-26T08:51:17Z</time>
      </trkpt>
      <trkpt lat="45.24163" lon="6.00753">
        <ele>1666</ele>
        <time>2017-03-26T08:53:25Z</time>
      </trkpt>
      <trkpt lat="45.24112" lon="6.00832">
        <ele>1691</ele>
        <time>2017-03-26T08:56:47Z</time>
      </trkpt>
      <trkpt lat="45.24081" lon="6.00837">
        <ele>1708</ele>
        <time>2017-03-26T09:00:18Z</time>
      </trkpt>
      <trkpt lat="45.24016" lon="6.00814">
        <ele>1719</ele>
        <time>2017-03-26T09:03:31Z</time>
      </trkpt>
      <trkpt lat="45.2395" lon="6.0091">
        <ele>1753</ele>
        <time>2017-03-26T09:07:09Z</time>
      </trkpt>
      <trkpt lat="45.23879" lon="6.00998">
        <ele>1778</ele>
        <time>2017-03-26T09:10:35Z</time>
      </trkpt>
      <trkpt lat="45.23786" lon="6.01005">
        <ele>1818</ele>
        <time>2017-03-26T09:14:21Z</time>
      </trkpt>
      <trkpt lat="45.23748" lon="6.01073">
        <ele>1844</ele>
        <time>2017-03-26T09:17:24Z</time>
      </trkpt>
      <trkpt lat="45.23617" lon="6.01215">
        <ele>1930</ele>
        <time>2017-03-26T09:30:58Z</time>
      </trkpt>
      <trkpt lat="45.23616" lon="6.01338">
        <ele>1964</ele>
        <time>2017-03-26T09:34:15Z</time>
      </trkpt>
      <trkpt lat="45.2364" lon="6.01416">
        <ele>1965</ele>
        <time>2017-03-26T09:37:25Z</time>
      </trkpt>
      <trkpt lat="45.23615" lon="6.01443">
        <ele>1991</ele>
        <time>2017-03-26T09:40:46Z</time>
      </trkpt>
      <trkpt lat="45.23573" lon="6.0147">
        <ele>2031</ele>
        <time>2017-03-26T09:43:49Z</time>
      </trkpt>
      <trkpt lat="45.23531" lon="6.01481">
        <ele>2043</ele>
        <time>2017-03-26T09:47:52Z</time>
      </trkpt>
      <trkpt lat="45.23508" lon="6.01529">
        <ele>2068</ele>
        <time>2017-03-26T09:51:46Z</time>
      </trkpt>
      <trkpt lat="45.23488" lon="6.01576">
        <ele>2092</ele>
        <time>2017-03-26T09:56:07Z</time>
      </trkpt>
      <trkpt lat="45.23478" lon="6.0168">
        <ele>2129</ele>
        <time>2017-03-26T10:00:06Z</time>
      </trkpt>
      <trkpt lat="45.23479" lon="6.01777">
        <ele>2158</ele>
        <time>2017-03-26T10:03:51Z</time>
      </trkpt>
      <trkpt lat="45.23386" lon="6.01758">
        <ele>2196</ele>
        <time>2017-03-26T10:06:46Z</time>
      </trkpt>
      <trkpt lat="45.23325" lon="6.01667">
        <ele>2206</ele>
        <time>2017-03-26T10:12:00Z</time>
      </trkpt>
      <trkpt lat="45.23274" lon="6.01628">
        <ele>2243</ele>
        <time>2017-03-26T10:23:54Z</time>
      </trkpt>
      <trkpt lat="45.23226" lon="6.0158">
        <ele>2265</ele>
        <time>2017-03-26T10:39:20Z</time>
      </trkpt>
      <trkpt lat="45.23288" lon="6.01621">
        <ele>2236</ele>
        <time>2017-03-26T10:40:50Z</time>
      </trkpt>
      <trkpt lat="45.23343" lon="6.01659">
        <ele>2180</ele>
        <time>2017-03-26T10:41:39Z</time>
      </trkpt>
      <trkpt lat="45.23399" lon="6.01622">
        <ele>2149</ele>
        <time>2017-03-26T10:42:17Z</time>
      </trkpt>
      <trkpt lat="45.23468" lon="6.016">
        <ele>2109</ele>
        <time>2017-03-26T10:43:20Z</time>
      </trkpt>
      <trkpt lat="45.2349" lon="6.01513">
        <ele>2083</ele>
        <time>2017-03-26T10:43:56Z</time>
      </trkpt>
      <trkpt lat="45.23567" lon="6.01488">
        <ele>2034</ele>
        <time>2017-03-26T10:44:14Z</time>
      </trkpt>
      <trkpt lat="45.23591" lon="6.01396">
        <ele>1978</ele>
        <time>2017-03-26T10:44:38Z</time>
      </trkpt>
      <trkpt lat="45.23651" lon="6.01295">
        <ele>1944</ele>
        <time>2017-03-26T10:44:55Z</time>
      </trkpt>
      <trkpt lat="45.23658" lon="6.01162">
        <ele>1903</ele>
        <time>2017-03-26T10:45:15Z</time>
      </trkpt>
      <trkpt lat="45.23711" lon="6.01085">
        <ele>1864</ele>
        <time>2017-03-26T10:45:54Z</time>
      </trkpt>
      <trkpt lat="45.23775" lon="6.01034">
        <ele>1821</ele>
        <time>2017-03-26T10:46:21Z</time>
      </trkpt>
      <trkpt lat="45.23856" lon="6.01014">
        <ele>1791</ele>
        <time>2017-03-26T10:46:44Z</time>
      </trkpt>
      <trkpt lat="45.23921" lon="6.00934">
        <ele>1761</ele>
        <time>2017-03-26T10:47:20Z</time>
      </trkpt>
      <trkpt lat="45.23988" lon="6.00871">
        <ele>1747</ele>
        <time>2017-03-26T10:47:39Z</time>
      </trkpt>
      <trkpt lat="45.24049" lon="6.00807">
        <ele>1709</ele>
        <time>2017-03-26T10:47:59Z</time>
      </trkpt>
      <trkpt lat="45.24115" lon="6.0084">
        <ele>1707</ele>
        <time>2017-03-26T10:48:29Z</time>
      </trkpt>
      <trkpt lat="45.24168" lon="6.00741">
        <ele>1661</ele>
        <time>2017-03-26T10:48:43Z</time>
      </trkpt>
      <trkpt lat="45.24224" lon="6.0064">
        <ele>1644</ele>
        <time>2017-03-26T10:48:56Z</time>
      </trkpt>
      <trkpt lat="45.24298" lon="6.00564">
        <ele>1628</ele>
        <time>2017-03-26T10:49:48Z</time>
      </trkpt>
      <trkpt lat="45.24375" lon="6.00498">
        <ele>1617</ele>
        <time>2017-03-26T10:50:01Z</time>
      </trkpt>
      <trkpt lat="45.24438" lon="6.00396">
        <ele>1607</ele>
        <time>2017-03-26T10:50:15Z</time>
      </trkpt>
      <trkpt lat="45.24479" lon="6.00273">
        <ele>1586</ele>
        <time>2017-03-26T10:50:26Z</time>
      </trkpt>
      <trkpt lat="45.24548" lon="6.00178">
        <ele>1580</ele>
        <time>2017-03-26T10:50:41Z</time>
      </trkpt>
      <trkpt lat="45.24572" lon="6.00048">
        <ele>1537</ele>
        <time>2017-03-26T10:51:05Z</time>
      </trkpt>
      <trkpt lat="45.24594" lon="5.99926">
        <ele>1505</ele>
        <time>2017-03-26T10:51:23Z</time>
      </trkpt>
      <trkpt lat="45.24645" lon="5.99826">
        <ele>1461</ele>
        <time>2017-03-26T10:51:42Z</time>
      </trkpt>
      <trkpt lat="45.24716" lon="5.99749">
        <ele>1445</ele>
        <time>2017-03-26T10:51:53Z</time>
      </trkpt>
      <trkpt lat="45.24788" lon="5.99673">
        <ele>1444</ele>
        <time>2017-03-26T10:52:03Z</time>
      </trkpt>
      <trkpt lat="45.24851" lon="5.99594">
        <ele>1433</ele>
        <time>2017-03-26T10:52:23Z</time>
      </trkpt>
      <trkpt lat="45.24936" lon="5.99525">
        <ele>1420</ele>
        <time>2017-03-26T10:52:52Z</time>
      </trkpt>
      <trkpt lat="45.25012" lon="5.99453">
        <ele>1405</ele>
        <time>2017-03-26T10:53:08Z</time>
      </trkpt>
      <trkpt lat="45.251" lon="5.99414">
        <ele>1389</ele>
        <time>2017-03-26T10:53:19Z</time>
      </trkpt>
      <trkpt lat="45.25189" lon="5.99364">
        <ele>1385</ele>
        <time>2017-03-26T10:53:33Z</time>
      </trkpt>
      <trkpt lat="45.2528" lon="5.99342">
        <ele>1382</ele>
        <time>2017-03-26T10:53:51Z</time>
      </trkpt>
      <trkpt lat="45.25373" lon="5.99345">
        <ele>1371</ele>
        <time>2017-03-26T10:54:11Z</time>
      </trkpt>
      <trkpt lat="45.25461" lon="5.99363">
        <ele>1359</ele>
        <time>2017-03-26T10:56:42Z</time>
      </trkpt>
      <trkpt lat="45.25471" lon="5.99384">
        <ele>1360</ele>
        <time>2017-03-26T11:01:16Z</time>
      </trkpt>
      <trkpt lat="45.25421" lon="5.99296">
        <ele>1350</ele>
        <time>2017-03-26T11:04:59Z</time>
      </trkpt>
      <trkpt lat="45.25325" lon="5.99247">
        <ele>1349</ele>
        <time>2017-03-26T11:06:31Z</time>
      </trkpt>
      <trkpt lat="45.25334" lon="5.99206">
        <ele>1338</ele>
        <time>2017-03-26T11:09:23Z</time>
      </trkpt>
    </trkseg>
  </trk>
</gpx>